createdAt,value
2023-07-15T00:00:38.443Z,66.05
2023-07-15T00:03:40.011Z,66.61
2023-07-15T00:06:41.779Z,66.77
2023-07-15T00:09:43.296Z,67.28
2023-07-15T00:12:44.833Z,67.74
2023-07-15T00:15:51.189Z,67.93
2023-07-15T00:18:52.848Z,68.13
2023-07-15T00:21:54.432Z,68.95
2023-07-15T00:24:56.376Z,68.22
2023-07-15T00:27:57.913Z,68.41
2023-07-15T00:30:59.417Z,68.23
2023-07-15T00:34:01.379Z,68.70
2023-07-15T00:37:02.975Z,68.36
2023-07-15T00:40:07.033Z,68.94
2023-07-15T00:43:46.453Z,68.32
2023-07-15T00:46:56.088Z,68.50
2023-07-15T00:49:58.110Z,68.34
2023-07-15T00:52:59.798Z,68.41
2023-07-15T00:56:01.427Z,69.16
2023-07-15T00:59:03.495Z,68.77
2023-07-15T01:02:05.221Z,68.37
2023-07-15T01:05:07.823Z,69.03
2023-07-15T01:08:09.365Z,68.78
2023-07-15T01:11:12.849Z,67.95
2023-07-15T01:14:14.413Z,68.57
2023-07-15T01:17:16.402Z,67.96
2023-07-15T01:20:23.680Z,67.51
2023-07-15T01:23:26.133Z,67.50
2023-07-15T01:26:27.658Z,68.31
2023-07-15T01:29:29.173Z,68.11
2023-07-15T01:32:30.764Z,67.40
2023-07-15T01:35:32.324Z,67.11
2023-07-15T01:38:34.669Z,66.86
2023-07-15T01:41:36.273Z,67.48
2023-07-15T01:44:37.803Z,67.51
2023-07-15T01:47:39.372Z,67.35
2023-07-15T01:50:41.325Z,66.86
2023-07-15T01:53:42.905Z,66.46
2023-07-15T01:56:44.442Z,66.18
2023-07-15T01:59:45.959Z,66.50
2023-07-15T02:02:48.295Z,66.14
2023-07-15T02:05:52.358Z,65.44
2023-07-15T02:08:56.104Z,65.62
2023-07-15T02:11:58.605Z,65.46
2023-07-15T02:15:00.142Z,66.44
2023-07-15T02:18:01.808Z,66.66
2023-07-15T02:21:03.680Z,66.77
2023-07-15T02:24:05.486Z,66.87
2023-07-15T02:27:06.984Z,67.00
2023-07-15T02:30:10.053Z,68.29
2023-07-15T02:33:12.129Z,68.06
2023-07-15T02:36:15.127Z,68.27
2023-07-15T02:39:17.805Z,68.50
2023-07-15T02:42:19.301Z,68.90
2023-07-15T02:45:20.979Z,68.69
2023-07-15T02:48:23.244Z,68.05
2023-07-15T02:51:25.290Z,68.45
2023-07-15T02:54:26.870Z,69.23
2023-07-15T02:57:29.227Z,69.80
2023-07-15T03:00:30.714Z,69.19
2023-07-15T03:03:35.214Z,69.46
2023-07-15T03:06:37.546Z,70.09
2023-07-15T03:09:39.086Z,69.67
2023-07-15T03:12:41.075Z,69.53
2023-07-15T03:15:43.543Z,69.50
2023-07-15T03:18:45.249Z,69.31
2023-07-15T03:21:46.884Z,70.07
2023-07-15T03:24:48.783Z,69.48
2023-07-15T03:27:51.001Z,69.97
2023-07-15T03:30:53.222Z,70.59
2023-07-15T03:33:54.989Z,70.49
2023-07-15T03:36:56.489Z,70.13
2023-07-15T03:39:58.389Z,69.63
2023-07-15T03:42:59.880Z,70.52
2023-07-15T03:46:01.495Z,70.47
2023-07-15T03:49:03.142Z,70.64
2023-07-15T03:52:04.996Z,70.71
2023-07-15T03:55:07.298Z,71.05
2023-07-15T03:58:09.736Z,70.77
2023-07-15T04:01:11.888Z,70.87
2023-07-15T04:04:13.514Z,71.37
2023-07-15T04:07:15.118Z,71.91
2023-07-15T04:10:17.244Z,71.67
2023-07-15T04:13:19.049Z,72.09
2023-07-15T04:16:20.633Z,71.86
2023-07-15T04:19:22.199Z,72.11
2023-07-15T04:22:24.810Z,72.08
2023-07-15T04:25:26.333Z,71.04
2023-07-15T04:28:27.854Z,70.78
2023-07-15T04:31:29.590Z,69.87
2023-07-15T04:34:31.204Z,70.07
2023-07-15T04:37:32.752Z,70.27
2023-07-15T04:40:34.268Z,69.60
2023-07-15T04:43:35.768Z,68.95
2023-07-15T04:46:38.095Z,67.98
2023-07-15T04:49:39.715Z,67.26
2023-07-15T04:52:41.242Z,66.81
2023-07-15T04:55:43.637Z,66.85
2023-07-15T04:58:45.201Z,67.62
2023-07-15T05:01:46.722Z,66.94
2023-07-15T05:04:48.872Z,67.30
2023-07-15T05:07:58.348Z,67.65
2023-07-15T05:11:00.796Z,67.50
2023-07-15T05:14:02.437Z,67.35
2023-07-15T05:17:07.530Z,67.67
2023-07-15T05:20:09.542Z,68.20
2023-07-15T05:23:11.239Z,68.30
2023-07-15T05:26:12.855Z,68.39
2023-07-15T05:29:14.372Z,67.92
2023-07-15T05:32:16.004Z,67.87
2023-07-15T05:35:17.848Z,67.88
2023-07-15T05:38:22.818Z,68.10
2023-07-15T05:41:25.748Z,68.16
2023-07-15T05:44:28.021Z,67.68
2023-07-15T05:47:29.803Z,67.51
2023-07-15T05:50:35.965Z,67.42
2023-07-15T05:53:37.502Z,67.80
2023-07-15T05:56:39.553Z,68.47
2023-07-15T05:59:41.758Z,68.31
2023-07-15T06:02:43.805Z,68.20
2023-07-15T06:05:45.469Z,67.54
2023-07-15T06:08:47.280Z,66.37
2023-07-15T06:11:48.829Z,65.76
2023-07-15T06:14:56.920Z,65.29
2023-07-15T06:18:00.417Z,66.08
2023-07-15T06:21:02.682Z,66.10
2023-07-15T06:24:07.903Z,66.53
2023-07-15T06:27:09.596Z,65.99
2023-07-15T06:30:11.410Z,64.80
2023-07-15T06:33:26.622Z,65.06
2023-07-15T06:36:30.074Z,63.61
2023-07-15T06:39:31.783Z,62.70
2023-07-15T06:42:35.866Z,61.38
2023-07-15T06:45:37.587Z,61.70
2023-07-15T06:48:39.273Z,60.94
2023-07-15T06:51:40.876Z,59.44
2023-07-15T06:54:42.438Z,57.74
2023-07-15T06:57:44.010Z,56.12
2023-07-15T07:00:45.547Z,55.52
2023-07-15T07:03:47.182Z,54.65
2023-07-15T07:06:48.782Z,54.92
2023-07-15T07:09:50.562Z,54.77
2023-07-15T07:12:52.380Z,53.38
2023-07-15T07:15:58.208Z,52.21
2023-07-15T07:18:59.994Z,51.17
2023-07-15T07:22:01.569Z,50.54
2023-07-15T07:25:03.478Z,49.97
2023-07-15T07:28:05.047Z,49.47
2023-07-15T07:31:06.974Z,48.82
2023-07-15T07:34:08.485Z,48.51
2023-07-15T07:37:10.047Z,47.91
2023-07-15T07:40:12.310Z,47.82
2023-07-15T07:43:14.135Z,47.39
2023-07-15T07:46:15.781Z,46.54
2023-07-15T07:49:18.160Z,46.03
2023-07-15T07:52:19.733Z,45.58
2023-07-15T07:55:21.252Z,45.32
2023-07-15T07:58:22.951Z,44.66
2023-07-15T08:01:25.509Z,43.73
2023-07-15T08:04:27.983Z,43.15
2023-07-15T08:07:30.148Z,43.48
2023-07-15T08:10:31.813Z,43.89
2023-07-15T08:13:33.331Z,44.64
2023-07-15T08:16:37.191Z,44.55
2023-07-15T08:19:38.772Z,43.94
2023-07-15T08:22:40.303Z,43.46
2023-07-15T08:25:41.975Z,43.77
2023-07-15T08:28:43.450Z,44.41
2023-07-15T08:31:45.007Z,44.16
2023-07-15T08:35:06.310Z,42.90
2023-07-15T08:38:07.836Z,42.64
2023-07-15T08:41:10.228Z,42.74
2023-07-15T08:44:12.120Z,41.79
2023-07-15T08:47:18.498Z,40.93
2023-07-15T08:50:20.826Z,40.24
2023-07-15T08:53:27.013Z,40.05
2023-07-15T08:56:30.307Z,39.34
2023-07-15T08:59:32.206Z,38.79
2023-07-15T09:02:35.931Z,38.52
2023-07-15T09:05:37.499Z,38.02
2023-07-15T09:08:42.061Z,37.58
2023-07-15T09:11:44.815Z,37.91
2023-07-15T09:14:54.049Z,43.77
2023-07-15T09:17:59.065Z,47.13
2023-07-15T09:21:14.732Z,46.46
2023-07-15T09:24:16.744Z,46.64
2023-07-15T09:27:18.270Z,45.99
2023-07-15T09:30:20.609Z,45.55
2023-07-15T09:33:32.125Z,45.45
2023-07-15T09:36:33.906Z,45.57
2023-07-15T09:39:35.734Z,45.34
2023-07-15T09:42:49.626Z,45.49
2023-07-15T09:45:51.485Z,45.31
2023-07-15T09:48:53.133Z,45.54
2023-07-15T09:51:55.073Z,45.30
2023-07-15T09:54:57.221Z,44.79
2023-07-15T09:58:09.338Z,43.50
2023-07-15T10:01:38.435Z,42.85
2023-07-15T10:04:49.896Z,42.00
2023-07-15T10:07:52.997Z,43.00
2023-07-15T10:10:54.574Z,43.46
2023-07-15T10:13:56.151Z,43.78
2023-07-15T10:17:33.955Z,44.30
2023-07-15T10:20:35.605Z,44.86
2023-07-15T10:23:37.354Z,45.24
2023-07-15T10:26:49.934Z,45.97
2023-07-15T10:30:14.167Z,45.74
2023-07-15T10:33:25.053Z,45.24
2023-07-15T10:36:45.845Z,44.92
2023-07-15T10:39:47.858Z,44.13
2023-07-15T10:43:06.585Z,43.23
2023-07-15T10:46:19.122Z,42.15
2023-07-15T10:49:22.764Z,42.93
2023-07-15T10:52:25.615Z,42.74
2023-07-15T10:55:27.097Z,42.78
2023-07-15T10:58:32.832Z,42.37
2023-07-15T11:01:35.806Z,42.19
2023-07-15T11:04:39.455Z,42.40
2023-07-15T11:07:41.144Z,43.23
2023-07-15T11:10:44.366Z,43.90
2023-07-15T11:13:47.566Z,43.89
2023-07-15T11:17:00.868Z,43.35
2023-07-15T11:20:07.299Z,43.83
2023-07-15T11:23:09.670Z,43.66
2023-07-15T11:26:11.564Z,43.17
2023-07-15T11:29:20.004Z,43.55
2023-07-15T11:32:21.744Z,43.14
2023-07-15T11:35:23.361Z,42.84
2023-07-15T11:38:34.476Z,42.99
2023-07-15T11:41:37.901Z,43.12
2023-07-15T11:44:40.660Z,42.89
2023-07-15T11:47:43.219Z,43.00
2023-07-15T11:50:44.800Z,42.83
2023-07-15T11:53:46.712Z,42.69
2023-07-15T11:56:48.886Z,42.69
2023-07-15T11:59:50.813Z,43.03
2023-07-15T12:02:52.662Z,42.72
2023-07-15T12:05:54.351Z,42.61
2023-07-15T12:09:08.518Z,42.69
2023-07-15T12:12:10.136Z,42.22
2023-07-15T12:15:12.945Z,41.81
2023-07-15T12:18:14.502Z,41.66
2023-07-15T12:21:16.398Z,41.63
2023-07-15T12:24:18.005Z,41.29
2023-07-15T12:27:19.513Z,41.22
2023-07-15T12:30:21.129Z,41.37
2023-07-15T12:33:22.750Z,41.30
2023-07-15T12:36:24.322Z,41.47
2023-07-15T12:39:25.823Z,41.48
2023-07-15T12:42:27.381Z,41.12
2023-07-15T12:45:28.954Z,41.11
2023-07-15T12:48:31.204Z,40.88
2023-07-15T12:51:32.960Z,40.73
2023-07-15T12:54:35.283Z,40.63
2023-07-15T12:57:36.844Z,40.63
2023-07-15T13:00:38.601Z,40.89
2023-07-15T13:03:40.275Z,39.66
2023-07-15T13:06:42.359Z,39.21
2023-07-15T13:09:45.238Z,38.64
2023-07-15T13:12:46.956Z,38.60
2023-07-15T13:15:48.407Z,38.42
2023-07-15T13:18:49.921Z,38.66
2023-07-15T13:21:51.900Z,40.06
2023-07-15T13:24:53.534Z,41.45
2023-07-15T13:27:55.388Z,42.19
2023-07-15T13:30:56.869Z,42.86
2023-07-15T13:33:58.467Z,43.21
2023-07-15T13:36:59.961Z,43.51
2023-07-15T13:40:01.593Z,43.68
2023-07-15T13:43:03.224Z,44.42
2023-07-15T13:46:04.835Z,45.27
2023-07-15T13:49:06.317Z,45.95
2023-07-15T13:52:08.093Z,45.95
2023-07-15T13:55:09.784Z,45.39
2023-07-15T13:58:11.345Z,44.75
2023-07-15T14:01:13.133Z,44.41
2023-07-15T14:04:15.171Z,41.54
2023-07-15T14:07:16.852Z,39.67
2023-07-15T14:10:18.455Z,37.38
2023-07-15T14:13:19.968Z,35.47
2023-07-15T14:16:21.504Z,35.39
2023-07-15T14:19:23.152Z,32.44
2023-07-15T14:22:38.683Z,27.82
2023-07-15T14:25:45.227Z,24.83
2023-07-15T14:28:46.707Z,26.02
2023-07-15T14:31:48.314Z,31.31
2023-07-15T14:34:49.991Z,25.54
2023-07-15T14:37:51.388Z,21.40
2023-07-15T14:40:53.012Z,20.92
2023-07-15T14:43:54.571Z,20.78
2023-07-15T14:46:56.241Z,20.99
2023-07-15T14:49:57.826Z,20.90
2023-07-15T14:53:01.441Z,20.57
2023-07-15T14:56:04.720Z,20.84
2023-07-15T14:59:06.467Z,20.17
2023-07-15T15:02:08.025Z,19.67
2023-07-15T15:05:10.408Z,19.01
2023-07-15T15:08:12.804Z,19.32
2023-07-15T15:11:14.602Z,19.80
2023-07-15T15:14:16.619Z,19.41
2023-07-15T15:17:18.394Z,20.25
2023-07-15T15:20:20.250Z,20.86
2023-07-15T15:23:22.749Z,20.02
2023-07-15T15:26:24.366Z,18.79
2023-07-15T15:29:26.935Z,19.49
2023-07-15T15:32:28.535Z,20.55
2023-07-15T15:35:30.248Z,20.65
2023-07-15T15:38:32.041Z,20.28
2023-07-15T15:41:33.572Z,19.87
2023-07-15T15:44:35.113Z,19.88
2023-07-15T15:47:37.024Z,19.85
2023-07-15T15:50:38.613Z,20.39
2023-07-15T15:53:40.120Z,20.88
2023-07-15T15:56:41.763Z,20.39
2023-07-15T15:59:43.268Z,20.88
2023-07-15T16:02:44.926Z,20.54
2023-07-15T16:05:46.685Z,20.79
2023-07-15T16:08:48.583Z,20.88
2023-07-15T16:11:50.141Z,20.34
2023-07-15T16:14:51.704Z,21.06
2023-07-15T16:17:53.290Z,19.89
2023-07-15T16:20:54.845Z,20.67
2023-07-15T16:23:56.380Z,20.50
2023-07-15T16:26:58.223Z,21.03
2023-07-15T16:29:59.921Z,20.67
2023-07-15T16:33:01.474Z,20.42
2023-07-15T16:36:03.924Z,20.19
2023-07-15T16:39:05.479Z,19.64
2023-07-15T16:42:07.064Z,19.28
2023-07-15T16:45:08.962Z,20.27
2023-07-15T16:48:10.489Z,21.22
2023-07-15T16:51:12.086Z,22.45
2023-07-15T16:54:13.811Z,24.69
2023-07-15T16:57:15.276Z,26.76
2023-07-15T17:00:16.778Z,27.96
2023-07-15T17:03:18.478Z,29.55
2023-07-15T17:06:20.116Z,30.82
2023-07-15T17:09:24.413Z,31.62
2023-07-15T17:12:25.999Z,31.86
2023-07-15T17:15:27.606Z,32.45
2023-07-15T17:18:29.367Z,33.59
2023-07-15T17:21:31.046Z,34.49
2023-07-15T17:24:32.562Z,35.62
2023-07-15T17:27:34.065Z,36.44
2023-07-15T17:30:35.578Z,37.08
2023-07-15T17:33:37.141Z,37.98
2023-07-15T17:36:38.664Z,40.18
2023-07-15T17:39:40.247Z,41.03
2023-07-15T17:42:41.791Z,42.01
2023-07-15T17:45:43.902Z,42.85
2023-07-15T17:48:45.418Z,43.58
2023-07-15T17:51:47.549Z,44.21
2023-07-15T17:54:49.065Z,44.72
2023-07-15T17:57:50.573Z,45.47
2023-07-15T18:00:52.188Z,47.06
2023-07-15T18:03:54.347Z,52.97
2023-07-15T18:06:55.969Z,61.04
2023-07-15T18:09:57.513Z,66.52
2023-07-15T18:13:00.045Z,68.26
2023-07-15T18:16:04.648Z,68.67
2023-07-15T18:19:06.725Z,69.88
2023-07-15T18:22:11.026Z,73.44
2023-07-15T18:25:12.592Z,74.88
2023-07-15T18:28:14.096Z,75.26
2023-07-15T18:31:15.858Z,76.68
2023-07-15T18:34:24.432Z,77.27
2023-07-15T18:37:27.505Z,76.73
2023-07-15T18:40:30.436Z,80.54
2023-07-15T18:43:32.526Z,81.70
2023-07-15T18:46:34.174Z,83.71
2023-07-15T18:49:36.080Z,85.69
2023-07-15T18:52:37.751Z,90.50
2023-07-15T18:55:39.341Z,93.93
2023-07-15T18:58:40.956Z,92.39
2023-07-15T19:01:42.527Z,91.32
2023-07-15T19:04:44.178Z,92.34
2023-07-15T19:07:45.718Z,100.00
2023-07-15T19:10:47.285Z,100.00
2023-07-15T19:13:49.018Z,100.00
2023-07-15T19:16:51.362Z,100.00
2023-07-15T19:19:53.002Z,100.00
2023-07-15T19:22:54.693Z,100.00
2023-07-15T19:25:56.348Z,100.00
2023-07-15T19:28:57.915Z,100.00
2023-07-15T19:31:59.394Z,100.00
2023-07-15T19:35:00.961Z,100.00
2023-07-15T19:38:03.094Z,100.00
2023-07-15T19:41:04.672Z,100.00
2023-07-15T19:44:06.250Z,100.00
2023-07-15T19:47:07.993Z,100.00
2023-07-15T19:50:10.024Z,100.00
2023-07-15T19:53:12.229Z,100.00
2023-07-15T19:56:14.103Z,100.00
2023-07-15T19:59:15.846Z,100.00
2023-07-15T20:02:17.416Z,100.00
2023-07-15T20:05:19.144Z,100.00
2023-07-15T20:08:20.697Z,100.00
2023-07-15T20:11:22.287Z,100.00
2023-07-15T20:14:23.929Z,100.00
2023-07-15T20:17:25.582Z,100.00
2023-07-15T20:20:27.170Z,100.00
2023-07-15T20:23:28.661Z,100.00
2023-07-15T20:26:30.253Z,100.00
2023-07-15T20:29:32.201Z,100.00
2023-07-15T20:32:33.700Z,100.00
2023-07-15T20:35:35.277Z,100.00
2023-07-15T20:38:37.101Z,100.00
2023-07-15T20:41:38.763Z,100.00
2023-07-15T20:44:40.408Z,100.00
2023-07-15T20:47:44.034Z,100.00
2023-07-15T20:50:45.742Z,100.00
2023-07-15T20:53:47.409Z,100.00
2023-07-15T20:56:48.918Z,100.00
2023-07-15T20:59:50.796Z,100.00
2023-07-15T21:02:54.439Z,100.00
2023-07-15T21:06:04.396Z,100.00
2023-07-15T21:09:05.912Z,100.00
2023-07-15T21:12:07.861Z,100.00
2023-07-15T21:15:09.802Z,100.00
2023-07-15T21:18:11.391Z,100.00
2023-07-15T21:21:13.028Z,100.00
2023-07-15T21:24:14.604Z,100.00
2023-07-15T21:27:16.237Z,100.00
2023-07-15T21:30:17.888Z,100.00
2023-07-15T21:33:19.416Z,100.00
2023-07-15T21:36:25.937Z,100.00
2023-07-15T21:39:27.501Z,100.00
2023-07-15T21:42:29.067Z,100.00
2023-07-15T21:45:30.629Z,100.00
2023-07-15T21:48:32.202Z,100.00
2023-07-15T21:51:34.008Z,100.00
2023-07-15T21:54:35.528Z,100.00
2023-07-15T21:57:37.100Z,100.00
2023-07-15T22:00:39.882Z,100.00
2023-07-15T22:03:41.679Z,100.00
2023-07-15T22:06:43.306Z,100.00
2023-07-15T22:09:44.914Z,100.00
2023-07-15T22:12:46.485Z,100.00
2023-07-15T22:15:48.057Z,100.00
2023-07-15T22:18:53.964Z,100.00
2023-07-15T22:21:55.830Z,100.00
2023-07-15T22:24:57.326Z,100.00
2023-07-15T22:27:58.886Z,100.00
2023-07-15T22:31:00.674Z,100.00
2023-07-15T22:34:02.268Z,100.00
2023-07-15T22:37:05.067Z,100.00
2023-07-15T22:40:07.379Z,100.00
2023-07-15T22:43:08.885Z,100.00
2023-07-15T22:46:10.467Z,100.00
2023-07-15T22:49:12.029Z,100.00
2023-07-15T22:52:13.536Z,100.00
2023-07-15T22:55:17.305Z,100.00
2023-07-15T22:58:18.895Z,100.00
2023-07-15T23:01:20.604Z,100.00
2023-07-15T23:04:22.190Z,100.00
2023-07-15T23:07:23.810Z,100.00
2023-07-15T23:10:25.357Z,100.00
2023-07-15T23:13:26.915Z,100.00
2023-07-15T23:16:28.501Z,100.00
2023-07-15T23:19:30.045Z,100.00
2023-07-15T23:22:31.806Z,100.00
2023-07-15T23:25:34.140Z,100.00
2023-07-15T23:28:35.756Z,100.00
2023-07-15T23:31:37.547Z,100.00
2023-07-15T23:34:39.056Z,100.00
2023-07-15T23:37:40.686Z,100.00
2023-07-15T23:40:42.384Z,100.00
2023-07-15T23:43:43.881Z,100.00
2023-07-15T23:46:45.412Z,100.00
2023-07-15T23:49:50.127Z,100.00
2023-07-15T23:52:51.813Z,100.00
2023-07-15T23:55:53.320Z,100.00
2023-07-15T23:58:54.843Z,100.00
